No Warnings, Watches, or Advisories

Active alerts


No alerts

Amazon Weather

Hours of Daylight

10 hrs 46 min 28 sec
of Daylight Today
44.9% Day 55.1% Night Which is
2 min 33 sec Shorter
Than Yesterday

South Webcam more information South Webcam


NorthWest Webcam more information NorthWest Webcam


You find our weather info also at:

UK Metoffice

Weather Underground

Mid-Atlantic Weather Network

WeatherlinkIP

Citizen Weather Observer Program (CWOP)

HAMweather, WeatherForYou, PWS Weather



Nearby METAR Reports

   
KDUJ - Du Bois, Pennsylvania, USA
Distance from station: NNE 16 mi
Updated: Oct 23 2019 7:53 am
Clear  
Clear  
   Wind: SW 5.8 mph
Wind: SW 5.8 mph
Temperature: 37.4°F
Wind Chill: 33.8°F
Dew Point: 35.6°F
Humidity: 93%
Barometer: 29.93 inHg
Clouds: Clear
Visibility: 10 mi
Cloud details: Clear
KDUJ 231153Z AUTO 23005KT 10SM CLR 03/02 A2993 RMK AO2 SLP143 70034 T00330022 10072 20033 51014
KIDI - Indiana/Stewart, Pennsylvania, USA
Distance from station: SSW 23 mi
Updated: Oct 23 2019 8:35 am
Clear  
Clear  
   Wind: WSW 5.8 mph
Wind: WSW 5.8 mph
Temperature: 42.8°F
Wind Chill: 39.2°F
Dew Point: 42.8°F
Humidity: 100%
Barometer: 30.03 inHg
Clouds: Clear
Visibility: 9 mi
Cloud details: Clear
KIDI 231235Z AUTO 24005KT 9SM CLR 06/06 A3003 RMK A01
KFIG - Clearfield, Pennsylvania, USA
Distance from station: ENE 31 mi
Updated: Oct 23 2019 8:29 am
Mist, Clear  
Mist, Clear  
   Wind: SSW 5.8 mph
Wind: SSW 5.8 mph
Temperature: 39.2°F
Wind Chill: 35.6°F
Dew Point: 39.2°F
Humidity: 100%
Barometer: 29.98 inHg
Clouds: Clear
Visibility: 3 mi
Cloud details: Clear
KFIG 231229Z AUTO 20005KT 3SM BR CLR 04/04 A2998 RMK AO2 T00440039
KJST - Johnstown, Pennsylvania, USA
Distance from station: S 44 mi
Updated: Oct 23 2019 7:54 am
Clear  
Clear  
   Wind: West 9.2 mph
Wind: West 9.2 mph
Temperature: 42.8°F
Wind Chill: 37.4°F
Dew Point: 37.4°F
Humidity: 81%
Barometer: 29.96 inHg
Clouds: Clear
Visibility: 10 mi
Cloud details: Clear
KJST 231154Z AUTO 26008KT 10SM CLR 06/03 A2996 RMK AO2 SLP154 70049 T00610028 10089 20061 51015
KPIT - Pittsburgh, Pennsylvania, USA
Distance from station: WSW 74 mi
Updated: Oct 23 2019 7:51 am
Clear  
Clear  
   Wind: SW 5.8 mph
Wind: SW 5.8 mph
Temperature: 44.6°F
Wind Chill: 41°F
Dew Point: 37.4°F
Humidity: 76%
Barometer: 29.99 inHg
Clouds: Clear
Visibility: 10 mi
Cloud details: Clear
KPIT 231151Z 22005KT 10SM CLR 07/03 A2999 RMK AO2 SLP164 70042 T00670033 10089 20067 52021
KLBE - Latrobe/Westmorl, Pennsylvania, USA
Distance from station: SSW 52 mi
Updated: Oct 23 2019 7:53 am
Clear  
Clear  
   Wind: SSW 11.5 mph
Wind: SSW 11.5 mph
Temperature: 42.8°F
Wind Chill: 37.4°F
Dew Point: 41°F
Humidity: 93%
Barometer: 30.01 inHg
Clouds: Clear
Visibility: 10 mi
Cloud details: Clear
KLBE 231153Z 21010KT 10SM SKC 06/05 A3001
KBTP - Butler Co., Pennsylvania, USA
Distance from station: WSW 52 mi
Updated: Oct 23 2019 7:56 am
Clear  
Clear  
   Wind: SSW 5.8 mph
Wind: SSW 5.8 mph
Temperature: 42.8°F
Wind Chill: 39.2°F
Dew Point: 39.2°F
Humidity: 87%
Barometer: 29.99 inHg
Clouds: Clear
Visibility: 10 mi
Cloud details: Clear
KBTP 231156Z AUTO 21005KT 10SM CLR 06/04 A2999 RMK AO2 SLP164 70061 T00560039 10067 20050 51019
KUCP - New Castle Muni, Pennsylvania, USA
Distance from station: W 75 mi
Updated: Oct 23 2019 7:56 am
Clear  
Clear  
   Wind: SW 4.6 mph
Wind: SW 4.6 mph
Temperature: 42.8°F
Wind Chill: 39.2°F
Dew Point: 39.2°F
Humidity: 87%
Barometer: 29.98 inHg
Clouds: Clear
Visibility: 10 mi
Cloud details: Clear
KUCP 231156Z AUTO 22004KT 10SM CLR 06/04 A2998 RMK AO2 SLP168 6//// 7//// T00610039 10100 20061 52017 PNO $
KFKL - Franklin, Pennsylvania, USA
Distance from station: WNW 54 mi
Updated: Oct 23 2019 7:56 am
Clear  
Clear  
   Wind: SSW 6.9 mph
Wind: SSW 6.9 mph
Temperature: 39.2°F
Wind Chill: 33.8°F
Dew Point: 37.4°F
Humidity: 93%
Barometer: 29.95 inHg
Clouds: Clear
Visibility: 10 mi
Cloud details: Clear
KFKL 231156Z AUTO 21006KT 10SM CLR 04/03 A2995 RMK AO2 SLP149 70048 T00440028 10072 20039 51016
KAOO - Altoona, Pennsylvania, USA
Distance from station: SE 57 mi
Updated: Oct 23 2019 7:53 am
Clear  
Clear  
   Wind: SSW 6.9 mph
Wind: SSW 6.9 mph
Temperature: 46.4°F
Wind Chill: 42.8°F
Dew Point: 37.4°F
Humidity: 71%
Barometer: 29.98 inHg
Clouds: Clear
Visibility: 10 mi
Cloud details: Clear
KAOO 231153Z AUTO 20006KT 10SM CLR 08/03 A2998 RMK AO2 SLP158 70099 T00780028 10094 20061 51018
KUNV - State College, Pennsylvania, USA
Distance from station: E 61 mi
Updated: Oct 23 2019 8:53 am
Clear  
Clear  
   Wind: SW 5.8 mph
Wind: SW 5.8 mph
Temperature: 44.6°F
Wind Chill: 41°F
Dew Point: 44.6°F
Humidity: 100%
Barometer: 29.99 inHg
Clouds: Clear
Visibility: 10 mi
Cloud details: Clear
KUNV 231253Z 23005KT 10SM SKC 07/07 A2999
KBFD - Bradford, Pennsylvania, USA
Distance from station: NNE 62 mi
Updated: Oct 23 2019 7:53 am
Clear  
Clear  
   Wind: varies 5.8 mph
Wind: varies 5.8 mph
Temperature: 39.2°F
Wind Chill: 35.6°F
Dew Point: 35.6°F
Humidity: 87%
Barometer: 29.91 inHg
Clouds: Clear
Visibility: 10 mi
Cloud details: Clear
KBFD 231153Z AUTO VRB05KT 10SM CLR 04/02 A2991 RMK AO2 SLP134 70063 T00440017 10083 20044 51014

Script developed by  Saratoga-weather.org Adapted for the template by  Weerstation Leuven

Equipment we use:

Weather-station
Davis VP2

Weather-program
Cumulus

Weather-server
Dell Inspiron 3521

Provider
Host On A Rope

Davis VP2

Cumulus

Dell Inspiron 3521

Host On A Rope